Spa/La Sauveniere, Belgium
Current Conditions -  °F | °C
As of 6:25 PM on Monday 24 Nov 2014 (Local Time) from EBLB Reporting Station
Clear Clear  
Wind Chill: 34°   Ceiling: Unl
Heat Index: 34°   Visibility: 6mi
Dew Point: 32°   Wind: 2mph
Humidity: 93%   Direction: NA
Pressure: 30.3"   Gusts: NA
Location:  50.49°N, 5.89°E
Report Text: EBLB 241725Z AUTO VRB02KT 9999 NCD 01/M00 Q1026 BLU
Loading
Personal Weather Stations






























Interactive Weather Map New forecast layout! Learn more

10-Day Weather Forecast

Advertisements
Track Severe Weather on mobile